sensor_id;sensor_type;location;lat;lon;timestamp;pressure;altitude;pressure_sealevel;temperature;humidity
71126;BME280;58785;55.566;38.058;2023-05-11T00:00:15;100897.75;;;10.75;62.02
71126;BME280;58785;55.566;38.058;2023-05-11T00:02:41;100903.38;;;10.82;62.23
71126;BME280;58785;55.566;38.058;2023-05-11T00:05:07;100901.97;;;10.78;62.01
71126;BME280;58785;55.566;38.058;2023-05-11T00:07:33;100905.94;;;10.83;61.85
71126;BME280;58785;55.566;38.058;2023-05-11T00:09:59;100910.09;;;10.76;61.70
71126;BME280;58785;55.566;38.058;2023-05-11T00:12:25;100913.34;;;10.80;62.11
71126;BME280;58785;55.566;38.058;2023-05-11T00:14:51;100915.78;;;10.83;61.34
71126;BME280;58785;55.566;38.058;2023-05-11T00:17:16;100910.16;;;10.86;61.22
71126;BME280;58785;55.566;38.058;2023-05-11T00:19:43;100916.63;;;10.83;61.52
71126;BME280;58785;55.566;38.058;2023-05-11T00:22:09;100921.97;;;10.83;61.61
71126;BME280;58785;55.566;38.058;2023-05-11T00:24:35;100916.16;;;10.78;61.60
71126;BME280;58785;55.566;38.058;2023-05-11T00:27:00;100917.25;;;10.76;61.06
71126;BME280;58785;55.566;38.058;2023-05-11T00:29:26;100913.75;;;10.75;61.83
71126;BME280;58785;55.566;38.058;2023-05-11T00:31:52;100918.09;;;10.76;61.44
71126;BME280;58785;55.566;38.058;2023-05-11T00:34:17;100917.97;;;10.78;61.43
71126;BME280;58785;55.566;38.058;2023-05-11T00:36:43;100905.59;;;10.77;61.22
71126;BME280;58785;55.566;38.058;2023-05-11T00:39:09;100914.94;;;10.82;61.47
71126;BME280;58785;55.566;38.058;2023-05-11T00:41:36;100922.81;;;10.84;61.41
71126;BME280;58785;55.566;38.058;2023-05-11T00:44:01;100904.50;;;10.79;61.32
71126;BME280;58785;55.566;38.058;2023-05-11T00:46:27;100909.00;;;10.79;61.68
71126;BME280;58785;55.566;38.058;2023-05-11T00:48:53;100911.53;;;10.80;62.11
71126;BME280;58785;55.566;38.058;2023-05-11T00:51:22;100912.38;;;10.81;61.72
71126;BME280;58785;55.566;38.058;2023-05-11T00:53:49;100909.97;;;10.78;62.00
71126;BME280;58785;55.566;38.058;2023-05-11T00:56:15;100915.03;;;10.81;61.96
71126;BME280;58785;55.566;38.058;2023-05-11T00:58:40;100921.81;;;10.85;61.87
71126;BME280;58785;55.566;38.058;2023-05-11T01:01:06;100931.50;;;10.86;61.73
71126;BME280;58785;55.566;38.058;2023-05-11T01:03:33;100928.84;;;10.86;62.06
71126;BME280;58785;55.566;38.058;2023-05-11T01:06:15;100936.72;;;10.87;62.50
71126;BME280;58785;55.566;38.058;2023-05-11T01:08:47;100943.03;;;10.86;62.24
71126;BME280;58785;55.566;38.058;2023-05-11T01:14:05;100932.72;;;10.82;62.32
71126;BME280;58785;55.566;38.058;2023-05-11T01:16:36;100929.63;;;10.77;62.34
71126;BME280;58785;55.566;38.058;2023-05-11T01:19:57;100931.31;;;10.78;62.72
71126;BME280;58785;55.566;38.058;2023-05-11T01:22:09;100931.44;;;10.76;63.04
71126;BME280;58785;55.566;38.058;2023-05-11T01:25:00;100923.94;;;10.70;62.88
71126;BME280;58785;55.566;38.058;2023-05-11T01:27:55;100936.91;;;10.75;63.42
71126;BME280;58785;55.566;38.058;2023-05-11T01:33:25;100919.84;;;10.66;63.38
71126;BME280;58785;55.566;38.058;2023-05-11T01:35:55;100938.72;;;10.74;63.56
71126;BME280;58785;55.566;38.058;2023-05-11T01:38:26;100921.66;;;10.65;64.00
71126;BME280;58785;55.566;38.058;2023-05-11T01:40:56;100938.72;;;10.74;64.41
71126;BME280;58785;55.566;38.058;2023-05-11T01:43:25;100929.03;;;10.73;64.48
71126;BME280;58785;55.566;38.058;2023-05-11T01:45:54;100939.56;;;10.75;64.28
71126;BME280;58785;55.566;38.058;2023-05-11T01:48:24;100935.94;;;10.76;64.20
71126;BME280;58785;55.566;38.058;2023-05-11T01:50:53;100937.75;;;10.75;64.56
71126;BME280;58785;55.566;38.058;2023-05-11T01:53:20;100941.13;;;10.77;64.14
71126;BME280;58785;55.566;38.058;2023-05-11T01:55:48;100941.97;;;10.78;64.59
71126;BME280;58785;55.566;38.058;2023-05-11T01:58:17;100936.66;;;10.78;64.58
71126;BME280;58785;55.566;38.058;2023-05-11T02:00:44;100937.50;;;10.78;64.64
71126;BME280;58785;55.566;38.058;2023-05-11T02:03:11;100931.16;;;10.79;64.61
71126;BME280;58785;55.566;38.058;2023-05-11T02:05:39;100929.34;;;10.80;64.46
71126;BME280;58785;55.566;38.058;2023-05-11T02:08:07;100918.81;;;10.78;64.66
71126;BME280;58785;55.566;38.058;2023-05-11T02:10:34;100938.41;;;10.88;64.18
71126;BME280;58785;55.566;38.058;2023-05-11T02:13:01;100931.97;;;10.91;64.06
71126;BME280;58785;55.566;38.058;2023-05-11T02:15:30;100930.13;;;10.91;64.74
71126;BME280;58785;55.566;38.058;2023-05-11T02:17:57;100923.09;;;10.90;63.79
71126;BME280;58785;55.566;38.058;2023-05-11T02:20:24;100928.91;;;10.96;63.91
71126;BME280;58785;55.566;38.058;2023-05-11T02:22:52;100926.13;;;10.97;63.79
71126;BME280;58785;55.566;38.058;2023-05-11T02:25:19;100926.81;;;10.99;63.32
71126;BME280;58785;55.566;38.058;2023-05-11T02:27:45;100922.47;;;10.98;62.97
71126;BME280;58785;55.566;38.058;2023-05-11T02:30:11;100927.44;;;11.03;63.17
71126;BME280;58785;55.566;38.058;2023-05-11T02:32:43;100935.16;;;11.06;63.05
71126;BME280;58785;55.566;38.058;2023-05-11T02:35:18;100927.94;;;10.97;63.08
71126;BME280;58785;55.566;38.058;2023-05-11T02:37:46;100937.63;;;10.98;63.45
71126;BME280;58785;55.566;38.058;2023-05-11T02:40:16;100939.31;;;10.99;62.56
71126;BME280;58785;55.566;38.058;2023-05-11T02:42:44;100939.31;;;10.99;62.66
71126;BME280;58785;55.566;38.058;2023-05-11T02:45:13;100941.84;;;11.00;62.95
71126;BME280;58785;55.566;38.058;2023-05-11T02:47:51;100933.72;;;11.02;62.00
71126;BME280;58785;55.566;38.058;2023-05-11T02:50:20;100935.88;;;11.08;62.10
71126;BME280;58785;55.566;38.058;2023-05-11T02:52:50;100938.19;;;11.22;62.33
71126;BME280;58785;55.566;38.058;2023-05-11T02:55:19;100946.41;;;11.30;63.01
71126;BME280;58785;55.566;38.058;2023-05-11T02:57:46;100945.91;;;11.36;62.97
71126;BME280;58785;55.566;38.058;2023-05-11T03:00:13;100949.75;;;11.43;62.81
71126;BME280;58785;55.566;38.058;2023-05-11T03:02:39;100950.16;;;11.48;62.80
71126;BME280;58785;55.566;38.058;2023-05-11T03:05:05;100953.72;;;11.59;63.23
71126;BME280;58785;55.566;38.058;2023-05-11T03:07:32;100953.22;;;11.65;63.08
71126;BME280;58785;55.566;38.058;2023-05-11T03:09:59;100943.22;;;11.67;63.31
71126;BME280;58785;55.566;38.058;2023-05-11T03:12:25;100942.81;;;11.71;62.99
71126;BME280;58785;55.566;38.058;2023-05-11T03:14:57;100948.97;;;11.83;63.36
71126;BME280;58785;55.566;38.058;2023-05-11T03:17:24;100947.72;;;11.87;63.54
71126;BME280;58785;55.566;38.058;2023-05-11T03:19:51;100954.91;;;11.96;63.35
71126;BME280;58785;55.566;38.058;2023-05-11T03:22:18;100961.41;;;12.03;62.76
71126;BME280;58785;55.566;38.058;2023-05-11T03:24:44;100947.91;;;12.05;63.04
71126;BME280;58785;55.566;38.058;2023-05-11T03:27:10;100961.88;;;12.18;63.06
71126;BME280;58785;55.566;38.058;2023-05-11T03:29:38;100962.03;;;12.26;63.20
71126;BME280;58785;55.566;38.058;2023-05-11T03:32:06;100963.88;;;12.35;63.08
71126;BME280;58785;55.566;38.058;2023-05-11T03:34:32;100965.88;;;12.43;63.16
71126;BME280;58785;55.566;38.058;2023-05-11T03:36:59;100968.56;;;12.53;62.42
71126;BME280;58785;55.566;38.058;2023-05-11T03:39:26;100961.94;;;12.57;61.67
71126;BME280;58785;55.566;38.058;2023-05-11T03:41:54;100972.94;;;12.63;61.69
71126;BME280;58785;55.566;38.058;2023-05-11T03:44:21;100964.06;;;12.63;61.68
71126;BME280;58785;55.566;38.058;2023-05-11T03:46:48;100962.94;;;12.65;61.66
71126;BME280;58785;55.566;38.058;2023-05-11T03:49:15;100963.50;;;12.69;61.27
71126;BME280;58785;55.566;38.058;2023-05-11T03:51:42;100964.47;;;12.68;60.63
71126;BME280;58785;55.566;38.058;2023-05-11T03:54:08;100978.31;;;12.73;60.48
71126;BME280;58785;55.566;38.058;2023-05-11T03:56:36;100976.47;;;12.74;60.83
71126;BME280;58785;55.566;38.058;2023-05-11T03:59:02;100980.41;;;12.79;60.54
71126;BME280;58785;55.566;38.058;2023-05-11T04:01:29;100978.00;;;12.86;60.81
71126;BME280;58785;55.566;38.058;2023-05-11T04:03:55;100979.16;;;12.93;60.25
71126;BME280;58785;55.566;38.058;2023-05-11T04:06:21;100976.19;;;12.96;60.00
71126;BME280;58785;55.566;38.058;2023-05-11T04:08:47;100972.06;;;13.02;59.71
71126;BME280;58785;55.566;38.058;2023-05-11T04:11:13;100978.16;;;13.04;59.61
71126;BME280;58785;55.566;38.058;2023-05-11T04:13:39;100978.69;;;13.07;59.77
71126;BME280;58785;55.566;38.058;2023-05-11T04:16:05;100981.53;;;13.06;59.33
71126;BME280;58785;55.566;38.058;2023-05-11T04:18:31;100977.84;;;13.07;58.81
71126;BME280;58785;55.566;38.058;2023-05-11T04:20:56;100984.06;;;13.07;58.58
71126;BME280;58785;55.566;38.058;2023-05-11T04:23:22;100983.63;;;13.12;58.54
71126;BME280;58785;55.566;38.058;2023-05-11T04:25:55;100981.38;;;13.17;58.16
71126;BME280;58785;55.566;38.058;2023-05-11T04:28:20;100974.75;;;13.21;57.95
71126;BME280;58785;55.566;38.058;2023-05-11T04:30:52;100983.47;;;13.33;57.83
71126;BME280;58785;55.566;38.058;2023-05-11T04:33:19;100990.81;;;13.40;57.48
71126;BME280;58785;55.566;38.058;2023-05-11T04:35:45;100999.84;;;13.39;57.35
71126;BME280;58785;55.566;38.058;2023-05-11T04:38:11;100998.00;;;13.40;57.31
71126;BME280;58785;55.566;38.058;2023-05-11T04:40:36;100998.69;;;13.42;56.83
71126;BME280;58785;55.566;38.058;2023-05-11T04:43:02;101009.28;;;13.53;57.49
71126;BME280;58785;55.566;38.058;2023-05-11T04:45:28;101007.47;;;13.44;57.19
71126;BME280;58785;55.566;38.058;2023-05-11T04:47:53;100998.16;;;13.38;57.04
71126;BME280;58785;55.566;38.058;2023-05-11T04:50:19;101001.94;;;13.45;57.11
71126;BME280;58785;55.566;38.058;2023-05-11T04:52:45;101002.78;;;13.56;56.71
71126;BME280;58785;55.566;38.058;2023-05-11T04:55:10;101008.94;;;13.66;56.71
71126;BME280;58785;55.566;38.058;2023-05-11T04:57:36;100986.63;;;13.75;56.01
71126;BME280;58785;55.566;38.058;2023-05-11T05:00:05;100989.38;;;13.93;55.40
71126;BME280;58785;55.566;38.058;2023-05-11T05:02:33;100990.13;;;14.13;55.13
71126;BME280;58785;55.566;38.058;2023-05-11T05:04:59;100992.81;;;14.40;54.57
71126;BME280;58785;55.566;38.058;2023-05-11T05:07:25;100981.13;;;14.59;54.44
71126;BME280;58785;55.566;38.058;2023-05-11T05:09:52;100984.06;;;14.83;54.29
71126;BME280;58785;55.566;38.058;2023-05-11T05:12:17;100981.19;;;15.03;54.37
71126;BME280;58785;55.566;38.058;2023-05-11T05:14:44;100978.66;;;15.19;53.88
71126;BME280;58785;55.566;38.058;2023-05-11T05:17:10;100986.47;;;15.30;53.65
71126;BME280;58785;55.566;38.058;2023-05-11T05:19:36;100976.28;;;15.42;53.13
71126;BME280;58785;55.566;38.058;2023-05-11T05:22:02;100979.44;;;15.55;52.37
71126;BME280;58785;55.566;38.058;2023-05-11T05:24:27;100978.59;;;15.80;51.57
71126;BME280;58785;55.566;38.058;2023-05-11T05:26:53;100973.00;;;16.08;51.69
71126;BME280;58785;55.566;38.058;2023-05-11T05:29:19;100973.72;;;16.18;50.99
71126;BME280;58785;55.566;38.058;2023-05-11T05:31:45;100976.41;;;16.18;50.99
71126;BME280;58785;55.566;38.058;2023-05-11T05:34:11;100975.38;;;16.11;51.22
71126;BME280;58785;55.566;38.058;2023-05-11T05:36:36;100969.09;;;16.02;51.47
71126;BME280;58785;55.566;38.058;2023-05-11T05:39:03;100969.22;;;15.93;51.42
71126;BME280;58785;55.566;38.058;2023-05-11T05:41:34;100981.50;;;15.87;51.41
71126;BME280;58785;55.566;38.058;2023-05-11T05:44:01;100986.34;;;15.84;51.49
71126;BME280;58785;55.566;38.058;2023-05-11T05:46:27;100990.69;;;15.76;51.32
71126;BME280;58785;55.566;38.058;2023-05-11T05:48:53;100999.03;;;15.65;51.59
71126;BME280;58785;55.566;38.058;2023-05-11T05:51:20;100988.72;;;15.61;52.37
71126;BME280;58785;55.566;38.058;2023-05-11T05:53:47;100972.88;;;15.58;52.69
71126;BME280;58785;55.566;38.058;2023-05-11T05:56:12;100958.22;;;15.52;52.47
71126;BME280;58785;55.566;38.058;2023-05-11T05:58:38;100968.28;;;15.68;52.41
71126;BME280;58785;55.566;38.058;2023-05-11T06:01:04;100968.88;;;15.88;51.96
71126;BME280;58785;55.566;38.058;2023-05-11T06:03:29;100974.66;;;16.01;51.50
71126;BME280;58785;55.566;38.058;2023-05-11T06:05:55;100967.78;;;16.06;51.15
71126;BME280;58785;55.566;38.058;2023-05-11T06:08:21;100978.44;;;16.16;50.88
71126;BME280;58785;55.566;38.058;2023-05-11T06:10:47;100977.97;;;16.29;50.65
71126;BME280;58785;55.566;38.058;2023-05-11T06:13:13;100981.84;;;16.34;50.36
71126;BME280;58785;55.566;38.058;2023-05-11T06:15:39;100984.91;;;16.48;50.13
71126;BME280;58785;55.566;38.058;2023-05-11T06:18:05;100993.19;;;16.62;49.81
71126;BME280;58785;55.566;38.058;2023-05-11T06:20:31;100990.38;;;16.80;49.11
71126;BME280;58785;55.566;38.058;2023-05-11T06:22:57;100998.81;;;17.02;48.64
71126;BME280;58785;55.566;38.058;2023-05-11T06:25:23;100998.50;;;17.21;48.37
71126;BME280;58785;55.566;38.058;2023-05-11T06:27:48;101006.59;;;17.37;48.45
71126;BME280;58785;55.566;38.058;2023-05-11T06:30:14;100986.69;;;17.38;48.60
71126;BME280;58785;55.566;38.058;2023-05-11T06:32:40;101004.56;;;17.47;48.68
71126;BME280;58785;55.566;38.058;2023-05-11T06:35:06;100997.66;;;17.45;48.65
71126;BME280;58785;55.566;38.058;2023-05-11T06:37:32;101002.03;;;17.54;48.52
71126;BME280;58785;55.566;38.058;2023-05-11T06:39:58;100990.88;;;17.57;48.53
71126;BME280;58785;55.566;38.058;2023-05-11T06:42:24;101005.38;;;17.72;47.99
71126;BME280;58785;55.566;38.058;2023-05-11T06:44:49;100991.88;;;17.80;47.50
71126;BME280;58785;55.566;38.058;2023-05-11T06:47:15;100997.91;;;17.91;47.20
71126;BME280;58785;55.566;38.058;2023-05-11T06:49:41;101000.97;;;17.88;46.85
71126;BME280;58785;55.566;38.058;2023-05-11T06:52:07;100996.91;;;17.84;47.26
71126;BME280;58785;55.566;38.058;2023-05-11T06:54:33;101005.69;;;17.94;46.75
71126;BME280;58785;55.566;38.058;2023-05-11T06:56:59;101008.97;;;18.12;46.17
71126;BME280;58785;55.566;38.058;2023-05-11T06:59:26;101005.22;;;18.21;45.98
71126;BME280;58785;55.566;38.058;2023-05-11T07:01:52;101007.94;;;18.21;45.68
71126;BME280;58785;55.566;38.058;2023-05-11T07:04:18;101004.59;;;18.11;45.50
71126;BME280;58785;55.566;38.058;2023-05-11T07:06:43;101008.00;;;18.05;45.46
71126;BME280;58785;55.566;38.058;2023-05-11T07:09:09;101014.09;;;17.99;45.70
71126;BME280;58785;55.566;38.058;2023-05-11T07:11:35;101010.56;;;17.90;45.61
71126;BME280;58785;55.566;38.058;2023-05-11T07:14:01;101000.31;;;17.77;45.30
71126;BME280;58785;55.566;38.058;2023-05-11T07:20:22;101006.22;;;17.73;44.51
71126;BME280;58785;55.566;38.058;2023-05-11T07:22:47;101004.50;;;17.88;43.96
71126;BME280;58785;55.566;38.058;2023-05-11T07:25:13;101000.22;;;18.10;43.25
71126;BME280;58785;55.566;38.058;2023-05-11T07:27:39;101005.53;;;18.34;42.86
71126;BME280;58785;55.566;38.058;2023-05-11T07:30:05;101001.00;;;18.58;42.53
71126;BME280;58785;55.566;38.058;2023-05-11T07:32:33;100995.28;;;18.84;42.49
71126;BME280;58785;55.566;38.058;2023-05-11T07:34:59;100995.50;;;19.20;41.77
71126;BME280;58785;55.566;38.058;2023-05-11T07:37:25;101001.63;;;19.37;41.36
71126;BME280;58785;55.566;38.058;2023-05-11T07:39:50;100999.38;;;19.26;41.40
71126;BME280;58785;55.566;38.058;2023-05-11T07:42:16;101001.41;;;19.01;41.23
71126;BME280;58785;55.566;38.058;2023-05-11T07:44:42;101007.94;;;18.83;41.29
71126;BME280;58785;55.566;38.058;2023-05-11T07:47:08;101008.53;;;18.71;41.46
71126;BME280;58785;55.566;38.058;2023-05-11T07:49:34;101007.06;;;18.60;41.51
71126;BME280;58785;55.566;38.058;2023-05-11T07:52:00;101013.16;;;18.54;41.71
71126;BME280;58785;55.566;38.058;2023-05-11T07:54:25;101021.16;;;18.47;41.71
71126;BME280;58785;55.566;38.058;2023-05-11T07:56:51;101012.41;;;18.37;41.56
71126;BME280;58785;55.566;38.058;2023-05-11T07:59:17;101016.34;;;18.26;41.32
71126;BME280;58785;55.566;38.058;2023-05-11T08:01:43;101013.19;;;18.15;41.34
71126;BME280;58785;55.566;38.058;2023-05-11T08:04:09;101021.16;;;18.08;41.52
71126;BME280;58785;55.566;38.058;2023-05-11T08:06:35;101026.75;;;17.98;41.70
71126;BME280;58785;55.566;38.058;2023-05-11T08:09:02;101039.75;;;17.87;42.02
71126;BME280;58785;55.566;38.058;2023-05-11T08:11:28;101058.50;;;17.64;42.62
71126;BME280;58785;55.566;38.058;2023-05-11T08:13:53;101044.66;;;17.18;43.95
71126;BME280;58785;55.566;38.058;2023-05-11T08:16:19;101020.03;;;16.80;44.54
71126;BME280;58785;55.566;38.058;2023-05-11T08:18:45;101009.56;;;16.69;45.50
71126;BME280;58785;55.566;38.058;2023-05-11T08:21:11;101007.22;;;16.82;44.79
71126;BME280;58785;55.566;38.058;2023-05-11T08:23:37;101001.19;;;17.37;43.92
71126;BME280;58785;55.566;38.058;2023-05-11T08:26:03;100997.59;;;17.94;43.01
71126;BME280;58785;55.566;38.058;2023-05-11T08:28:29;100998.91;;;18.37;41.88
71126;BME280;58785;55.566;38.058;2023-05-11T08:30:55;101015.81;;;18.62;41.25
71126;BME280;58785;55.566;38.058;2023-05-11T08:33:22;101026.84;;;18.52;41.61
71126;BME280;58785;55.566;38.058;2023-05-11T08:35:50;101017.03;;;18.20;41.38
71126;BME280;58785;55.566;38.058;2023-05-11T08:38:16;101035.50;;;18.00;42.30
71126;BME280;58785;55.566;38.058;2023-05-11T08:40:44;101020.38;;;17.50;44.05
71126;BME280;58785;55.566;38.058;2023-05-11T08:43:14;101003.06;;;17.29;44.88
71126;BME280;58785;55.566;38.058;2023-05-11T08:45:43;100993.78;;;17.23;44.51
71126;BME280;58785;55.566;38.058;2023-05-11T08:48:13;100982.31;;;17.29;44.39
71126;BME280;58785;55.566;38.058;2023-05-11T08:50:40;100990.22;;;17.47;44.58
71126;BME280;58785;55.566;38.058;2023-05-11T08:53:06;100991.88;;;17.72;44.26
71126;BME280;58785;55.566;38.058;2023-05-11T08:55:32;100981.88;;;17.97;44.40
71126;BME280;58785;55.566;38.058;2023-05-11T08:57:59;100983.41;;;18.31;44.50
71126;BME280;58785;55.566;38.058;2023-05-11T09:00:28;100977.56;;;18.81;43.80
71126;BME280;58785;55.566;38.058;2023-05-11T09:02:56;100986.94;;;19.16;42.97
71126;BME280;58785;55.566;38.058;2023-05-11T09:05:23;100988.28;;;19.35;42.38
71126;BME280;58785;55.566;38.058;2023-05-11T09:07:52;100987.22;;;19.21;42.26
71126;BME280;58785;55.566;38.058;2023-05-11T09:10:20;100969.53;;;18.96;42.31
71126;BME280;58785;55.566;38.058;2023-05-11T09:12:46;100966.22;;;18.86;42.23
71126;BME280;58785;55.566;38.058;2023-05-11T09:15:11;100954.59;;;18.85;41.89
71126;BME280;58785;55.566;38.058;2023-05-11T09:17:37;100956.84;;;18.97;41.39
71126;BME280;58785;55.566;38.058;2023-05-11T09:20:05;100943.44;;;19.03;41.23
71126;BME280;58785;55.566;38.058;2023-05-11T09:22:40;100944.00;;;19.13;40.74
71126;BME280;58785;55.566;38.058;2023-05-11T09:25:10;100943.69;;;19.31;40.26
71126;BME280;58785;55.566;38.058;2023-05-11T09:27:40;100933.19;;;19.36;40.10
71126;BME280;58785;55.566;38.058;2023-05-11T09:35:26;100939.69;;;18.89;40.20
71126;BME280;58785;55.566;38.058;2023-05-11T09:40:27;100917.28;;;18.81;39.98
71126;BME280;58785;55.566;38.058;2023-05-11T09:42:53;100907.31;;;18.81;40.36
71126;BME280;58785;55.566;38.058;2023-05-11T09:45:38;100905.44;;;18.82;39.90
71126;BME280;58785;55.566;38.058;2023-05-11T09:50:41;100886.78;;;19.10;40.74
71126;BME280;58785;55.566;38.058;2023-05-11T09:53:07;100891.47;;;19.31;40.93
71126;BME280;58785;55.566;38.058;2023-05-11T09:55:34;100890.53;;;19.38;40.60
71126;BME280;58785;55.566;38.058;2023-05-11T09:58:00;100891.09;;;19.48;40.48
71126;BME280;58785;55.566;38.058;2023-05-11T10:00:25;100878.38;;;19.57;40.23
71126;BME280;58785;55.566;38.058;2023-05-11T10:03:06;100877.31;;;19.73;40.03
71126;BME280;58785;55.566;38.058;2023-05-11T10:05:34;100875.81;;;19.85;40.49
71126;BME280;58785;55.566;38.058;2023-05-11T10:08:04;100877.66;;;19.99;40.51
71126;BME280;58785;55.566;38.058;2023-05-11T10:10:33;100888.75;;;20.04;39.97
71126;BME280;58785;55.566;38.058;2023-05-11T10:13:00;100872.97;;;19.93;39.38
71126;BME280;58785;55.566;38.058;2023-05-11T10:15:28;100874.25;;;20.12;39.44
71126;BME280;58785;55.566;38.058;2023-05-11T10:17:57;100884.03;;;20.28;39.26
71126;BME280;58785;55.566;38.058;2023-05-11T10:20:24;100867.84;;;20.34;38.73
71126;BME280;58785;55.566;38.058;2023-05-11T10:22:51;100872.59;;;20.47;38.59
71126;BME280;58785;55.566;38.058;2023-05-11T10:25:21;100868.25;;;20.53;38.30
71126;BME280;58785;55.566;38.058;2023-05-11T10:27:49;100877.41;;;20.52;38.53
71126;BME280;58785;55.566;38.058;2023-05-11T10:30:15;100881.44;;;20.41;38.10
71126;BME280;58785;55.566;38.058;2023-05-11T10:32:43;100866.41;;;20.17;37.88
71126;BME280;58785;55.566;38.058;2023-05-11T10:35:09;100867.56;;;19.93;38.22
71126;BME280;58785;55.566;38.058;2023-05-11T10:37:34;100884.72;;;19.64;38.39
71126;BME280;58785;55.566;38.058;2023-05-11T10:40:00;100927.06;;;19.19;38.53
71126;BME280;58785;55.566;38.058;2023-05-11T11:02:02;101014.38;;;13.37;64.24
71126;BME280;58785;55.566;38.058;2023-05-11T11:04:49;101011.16;;;13.23;65.04
71126;BME280;58785;55.566;38.058;2023-05-11T11:07:16;100948.81;;;13.31;63.56
71126;BME280;58785;55.566;38.058;2023-05-11T11:12:17;100921.34;;;13.66;62.25
71126;BME280;58785;55.566;38.058;2023-05-11T11:14:55;100919.22;;;13.97;62.36
71126;BME280;58785;55.566;38.058;2023-05-11T11:17:31;100906.38;;;14.19;62.00
71126;BME280;58785;55.566;38.058;2023-05-11T11:19:57;100894.84;;;14.36;62.05
71126;BME280;58785;55.566;38.058;2023-05-11T11:25:03;100894.91;;;14.62;61.58
71126;BME280;58785;55.566;38.058;2023-05-11T11:30:20;100898.28;;;14.82;61.73
71126;BME280;58785;55.566;38.058;2023-05-11T11:32:48;100878.47;;;14.83;61.62
71126;BME280;58785;55.566;38.058;2023-05-11T11:40:39;100874.25;;;15.24;61.61
71126;BME280;58785;55.566;38.058;2023-05-11T11:43:16;100884.44;;;15.46;61.63
71126;BME280;58785;55.566;38.058;2023-05-11T11:48:32;100868.84;;;15.92;61.25
71126;BME280;58785;55.566;38.058;2023-05-11T11:51:10;100873.66;;;16.15;60.61
71126;BME280;58785;55.566;38.058;2023-05-11T11:58:58;100886.13;;;16.48;59.22
71126;BME280;58785;55.566;38.058;2023-05-11T12:01:27;100892.88;;;16.44;57.74
71126;BME280;58785;55.566;38.058;2023-05-11T12:04:12;100886.31;;;16.47;58.35
71126;BME280;58785;55.566;38.058;2023-05-11T12:06:43;100881.41;;;16.50;57.80
71126;BME280;58785;55.566;38.058;2023-05-11T12:09:17;100877.91;;;16.58;57.46
71126;BME280;58785;55.566;38.058;2023-05-11T12:11:45;100858.38;;;16.56;56.47
71126;BME280;58785;55.566;38.058;2023-05-11T12:14:12;100874.38;;;16.65;56.47
71126;BME280;58785;55.566;38.058;2023-05-11T12:16:37;100869.53;;;16.77;56.63
71126;BME280;58785;55.566;38.058;2023-05-11T12:19:03;100878.94;;;16.89;56.22
71126;BME280;58785;55.566;38.058;2023-05-11T12:21:30;100876.25;;;16.81;53.05
71126;BME280;58785;55.566;38.058;2023-05-11T12:24:05;100870.53;;;16.84;51.70
71126;BME280;58785;55.566;38.058;2023-05-11T12:26:32;100861.94;;;16.89;51.86
71126;BME280;58785;55.566;38.058;2023-05-11T12:29:13;100867.97;;;16.99;51.97
71126;BME280;58785;55.566;38.058;2023-05-11T12:31:41;100870.84;;;17.06;51.31
71126;BME280;58785;55.566;38.058;2023-05-11T12:34:13;100867.63;;;17.10;50.75
71126;BME280;58785;55.566;38.058;2023-05-11T12:36:40;100866.09;;;17.24;51.23
71126;BME280;58785;55.566;38.058;2023-05-11T12:39:06;100868.94;;;17.31;49.79
71126;BME280;58785;55.566;38.058;2023-05-11T12:41:32;100869.09;;;17.37;49.43
71126;BME280;58785;55.566;38.058;2023-05-11T12:43:58;100857.06;;;17.56;49.46
71126;BME280;58785;55.566;38.058;2023-05-11T12:46:24;100853.13;;;17.75;49.27
71126;BME280;58785;55.566;38.058;2023-05-11T12:48:50;100849.50;;;17.91;48.60
71126;BME280;58785;55.566;38.058;2023-05-11T12:54:38;100856.31;;;18.09;47.89
71126;BME280;58785;55.566;38.058;2023-05-11T12:57:07;100858.03;;;18.02;47.55
71126;BME280;58785;55.566;38.058;2023-05-11T12:59:38;100849.84;;;17.88;47.79
71126;BME280;58785;55.566;38.058;2023-05-11T13:02:15;100854.66;;;17.69;47.36
71126;BME280;58785;55.566;38.058;2023-05-11T13:04:42;100855.03;;;17.58;47.65
71126;BME280;58785;55.566;38.058;2023-05-11T13:07:09;100862.13;;;17.51;47.75
71126;BME280;58785;55.566;38.058;2023-05-11T13:09:36;100860.13;;;17.45;47.74
71126;BME280;58785;55.566;38.058;2023-05-11T13:12:18;100869.38;;;17.42;46.54
71126;BME280;58785;55.566;38.058;2023-05-11T13:14:49;100865.38;;;17.38;47.01
71126;BME280;58785;55.566;38.058;2023-05-11T13:17:36;100863.22;;;17.34;47.23
71126;BME280;58785;55.566;38.058;2023-05-11T13:22:41;100872.63;;;17.30;47.43
71126;BME280;58785;55.566;38.058;2023-05-11T13:25:07;100876.00;;;17.23;47.65
71126;BME280;58785;55.566;38.058;2023-05-11T13:27:37;100873.34;;;17.15;48.00
71126;BME280;58785;55.566;38.058;2023-05-11T13:30:04;100869.66;;;17.08;48.09
71126;BME280;58785;55.566;38.058;2023-05-11T13:32:30;100868.47;;;17.03;48.12
71126;BME280;58785;55.566;38.058;2023-05-11T13:34:56;100865.63;;;17.04;47.92
71126;BME280;58785;55.566;38.058;2023-05-11T13:37:21;100872.34;;;17.08;47.86
71126;BME280;58785;55.566;38.058;2023-05-11T13:39:47;100863.25;;;17.17;48.04
71126;BME280;58785;55.566;38.058;2023-05-11T13:42:13;100863.88;;;17.28;48.49
71126;BME280;58785;55.566;38.058;2023-05-11T13:44:38;100874.31;;;17.39;49.16
71126;BME280;58785;55.566;38.058;2023-05-11T13:47:04;100880.19;;;17.42;49.90
71126;BME280;58785;55.566;38.058;2023-05-11T13:49:30;100875.16;;;17.31;50.17